Time;durP1;ratioP1;P1;durP2;ratioP2;P2;SDS_P1;SDS_P2;PMS_P1;PMS_P2;Temp;Humidity;BMP_temperature;BMP_pressure;BME280_temperature;BME280_humidity;BME280_pressure;Samples;Min_cycle;Max_cycle;Signal;HPM_P1;HPM_P2
2023/10/09 00:01:28;;;;;;;3.27;2.60;;;13.00;97.90;;;;;;5106739;28;20537;-77
2023/10/09 00:03:55;;;;;;;3.40;2.60;;;12.90;98.00;;;;;;5105346;28;20587;-77
2023/10/09 00:06:31;;;;;;;5.17;2.73;;;12.90;98.10;;;;;;5104976;28;20906;-77
2023/10/09 00:08:57;;;;;;;3.13;2.17;;;12.90;98.10;;;;;;5106898;28;20396;-77
2023/10/09 00:11:26;;;;;;;6.27;3.00;;;12.90;98.10;;;;;;5105022;28;21028;-77
2023/10/09 00:13:57;;;;;;;4.53;2.70;;;12.90;98.20;;;;;;5106757;28;20528;-78
2023/10/09 00:16:34;;;;;;;3.83;2.37;;;13.00;98.20;;;;;;5104836;28;20986;-77
2023/10/09 00:22:10;;;;;;;4.68;2.58;;;12.80;98.20;;;;;;5096099;28;20428;-77
2023/10/09 00:24:41;;;;;;;3.67;2.47;;;12.80;98.30;;;;;;5104906;28;20206;-77
2023/10/09 00:27:14;;;;;;;2.43;2.03;;;12.80;98.20;;;;;;5104926;28;20272;-77
2023/10/09 00:29:46;;;;;;;3.30;2.63;;;12.70;97.50;;;;;;5106193;28;20511;-77
2023/10/09 00:32:25;;;;;;;2.03;1.88;;;12.70;97.10;;;;;;5104964;28;20599;-77
2023/10/09 00:34:52;;;;;;;2.83;2.50;;;12.70;97.20;;;;;;5104766;28;20755;-77
2023/10/09 00:37:22;;;;;;;2.30;1.87;;;12.80;97.40;;;;;;5105244;28;20457;-78
2023/10/09 00:39:55;;;;;;;2.50;2.13;;;12.80;97.50;;;;;;5106459;28;20524;-78
2023/10/09 00:42:29;;;;;;;3.33;2.20;;;12.80;97.40;;;;;;5106376;28;20408;-78
2023/10/09 00:44:56;;;;;;;4.20;1.90;;;12.80;97.40;;;;;;5108468;28;20442;-78
2023/10/09 00:47:26;;;;;;;2.97;2.10;;;12.70;97.20;;;;;;5109028;28;20506;-77
2023/10/09 00:50:01;;;;;;;3.10;2.10;;;12.70;96.80;;;;;;5109763;28;20511;-77
2023/10/09 00:52:39;;;;;;;4.17;1.97;;;12.70;96.20;;;;;;5108977;28;20472;-78
2023/10/09 00:55:13;;;;;;;2.90;1.80;;;12.70;96.70;;;;;;5109412;28;20447;-78
2023/10/09 00:57:41;;;;;;;2.50;2.30;;;12.60;96.50;;;;;;5110462;28;20892;-77
2023/10/09 01:00:32;;;;;;;4.53;1.90;;;12.60;96.40;;;;;;5108308;28;20436;-78
2023/10/09 01:05:57;;;;;;;1.30;1.20;;;12.60;96.20;;;;;;5110086;27;20432;-78
2023/10/09 01:11:23;;;;;;;3.13;2.33;;;12.60;96.30;;;;;;5109685;28;20286;-78
2023/10/09 01:16:16;;;;;;;2.00;1.67;;;12.50;96.70;;;;;;5109257;28;20508;-77
2023/10/09 01:18:49;;;;;;;8.27;2.50;;;12.50;96.60;;;;;;5108363;28;20436;-79
2023/10/09 01:21:16;;;;;;;2.00;1.80;;;12.50;96.40;;;;;;5108933;28;20664;-78
2023/10/09 01:26:26;;;;;;;2.40;1.70;;;12.40;96.70;;;;;;5109154;28;20483;-78
2023/10/09 01:28:57;;;;;;;6.27;2.17;;;12.30;96.70;;;;;;5109894;28;20176;-78
2023/10/09 01:31:26;;;;;;;2.38;1.92;;;12.30;96.90;;;;;;5107903;28;20745;-78
2023/10/09 01:33:59;;;;;;;4.72;2.00;;;12.30;97.10;;;;;;5108463;28;20300;-79
2023/10/09 01:36:38;;;;;;;5.00;2.47;;;12.20;97.10;;;;;;5107926;28;20286;-79
2023/10/09 01:39:23;;;;;;;2.42;2.05;;;12.20;96.80;;;;;;5109092;28;20227;-77
2023/10/09 01:41:58;;;;;;;6.28;2.35;;;12.10;96.90;;;;;;5108346;28;20198;-78
2023/10/09 01:44:30;;;;;;;2.30;2.08;;;12.10;96.80;;;;;;5109368;28;20237;-78
2023/10/09 01:46:57;;;;;;;2.55;1.65;;;12.10;96.90;;;;;;5107896;28;20624;-77
2023/10/09 01:49:29;;;;;;;4.10;2.25;;;12.10;96.90;;;;;;5107618;28;20280;-78
2023/10/09 01:51:58;;;;;;;2.20;1.55;;;12.00;97.00;;;;;;5109345;27;20221;-78
2023/10/09 01:54:38;;;;;;;2.67;1.85;;;12.00;97.10;;;;;;5108645;28;20196;-78
2023/10/09 01:57:13;;;;;;;2.30;2.00;;;12.00;97.20;;;;;;5107457;28;20227;-79
2023/10/09 01:59:45;;;;;;;2.30;2.05;;;12.00;97.20;;;;;;5109003;28;20240;-77
2023/10/09 02:02:26;;;;;;;1.92;1.70;;;12.00;97.20;;;;;;5107409;28;20240;-78
2023/10/09 02:05:09;;;;;;;4.30;2.20;;;11.90;96.80;;;;;;5108957;28;20565;-79
2023/10/09 02:07:40;;;;;;;3.47;2.03;;;11.90;97.00;;;;;;5109212;28;20284;-78
2023/10/09 02:13:00;;;;;;;2.60;2.00;;;11.80;97.00;;;;;;5109151;28;20660;-77
2023/10/09 02:23:29;;;;;;;3.30;2.17;;;11.60;97.20;;;;;;5108960;28;20168;-77
2023/10/09 02:26:01;;;;;;;3.58;2.05;;;11.60;97.20;;;;;;5107982;28;20187;-77
2023/10/09 02:28:32;;;;;;;4.07;2.30;;;11.60;97.20;;;;;;5106264;28;20661;-79
2023/10/09 02:31:00;;;;;;;2.35;2.00;;;11.60;97.20;;;;;;5107877;28;20202;-78
2023/10/09 02:33:30;;;;;;;2.08;1.90;;;11.60;97.30;;;;;;5108821;28;20266;-78
2023/10/09 02:35:59;;;;;;;2.90;2.33;;;11.50;97.40;;;;;;5108379;28;20195;-79
2023/10/09 02:38:26;;;;;;;2.60;2.05;;;11.50;97.60;;;;;;5108295;28;20239;-77
2023/10/09 02:46:30;;;;;;;3.13;2.17;;;11.40;97.70;;;;;;5098106;28;20259;-79
2023/10/09 02:49:03;;;;;;;3.35;2.03;;;11.40;97.60;;;;;;5108521;28;20202;-77
2023/10/09 02:53:59;;;;;;;3.42;2.90;;;11.40;97.60;;;;;;5108061;28;20206;-78
2023/10/09 02:57:36;;;;;;;6.57;3.10;;;11.40;97.30;;;;;;5105842;28;20211;-78
2023/10/09 02:59:23;;;;;;;4.80;3.22;;;11.40;97.30;;;;;;5097940;28;20212;-78
2023/10/09 03:01:52;;;;;;;6.20;3.65;;;11.30;97.80;;;;;;5106629;28;20641;-77
2023/10/09 03:04:19;;;;;;;4.95;4.15;;;11.30;97.90;;;;;;5107522;28;20215;-79
2023/10/09 03:06:50;;;;;;;5.57;3.88;;;11.30;98.00;;;;;;5107208;28;20252;-78
2023/10/09 03:09:18;;;;;;;3.38;2.85;;;11.30;98.10;;;;;;5107601;28;20170;-77
2023/10/09 03:11:53;;;;;;;5.30;3.17;;;11.30;98.20;;;;;;5107860;28;20240;-77
2023/10/09 03:14:20;;;;;;;3.00;2.22;;;11.30;98.10;;;;;;5107394;28;20187;-78
2023/10/09 03:16:48;;;;;;;4.72;2.67;;;11.40;98.00;;;;;;5106131;28;20649;-78
2023/10/09 03:19:13;;;;;;;6.68;2.33;;;11.40;97.90;;;;;;5107301;28;20440;-78
2023/10/09 03:21:39;;;;;;;2.23;2.03;;;11.40;97.80;;;;;;5107526;28;20251;-79
2023/10/09 03:24:06;;;;;;;2.55;1.90;;;11.40;97.60;;;;;;5107433;28;20183;-78
2023/10/09 03:26:32;;;;;;;2.75;1.90;;;11.40;97.20;;;;;;5107378;28;20198;-78
2023/10/09 03:29:01;;;;;;;8.00;2.50;;;11.40;97.10;;;;;;5104929;28;20184;-78
2023/10/09 03:31:30;;;;;;;5.93;2.42;;;11.50;97.40;;;;;;5106946;28;20184;-77
2023/10/09 03:33:56;;;;;;;8.02;2.55;;;11.50;97.50;;;;;;5105752;28;20226;-78
2023/10/09 03:36:26;;;;;;;3.67;2.70;;;11.50;97.50;;;;;;5107090;28;20195;-77
2023/10/09 03:38:55;;;;;;;4.25;2.65;;;11.40;97.50;;;;;;5105284;28;20727;-77
2023/10/09 03:41:20;;;;;;;3.45;2.33;;;11.40;97.60;;;;;;5105157;28;20688;-77
2023/10/09 03:43:46;;;;;;;7.03;2.87;;;11.40;97.80;;;;;;5105905;28;20188;-77
2023/10/09 03:46:25;;;;;;;3.17;2.23;;;11.30;97.90;;;;;;5104919;28;20203;-77
2023/10/09 03:48:52;;;;;;;2.47;2.25;;;11.20;97.90;;;;;;5105880;28;20262;-77
2023/10/09 03:51:26;;;;;;;4.57;2.15;;;11.30;98.00;;;;;;5106629;28;20278;-77
2023/10/09 03:53:54;;;;;;;7.22;4.05;;;11.30;97.90;;;;;;5105519;28;20633;-77
2023/10/09 03:56:24;;;;;;;5.03;3.35;;;11.30;97.80;;;;;;5106304;28;20195;-77
2023/10/09 03:58:50;;;;;;;5.05;2.90;;;11.30;97.80;;;;;;5103962;28;20267;-77
2023/10/09 04:03:55;;;;;;;3.60;2.80;;;11.20;97.70;;;;;;5106918;28;20169;-78
2023/10/09 04:06:22;;;;;;;5.50;3.50;;;11.20;97.90;;;;;;5106290;28;20535;-77
2023/10/09 04:08:49;;;;;;;6.07;3.95;;;11.20;97.80;;;;;;5105020;28;20183;-77
2023/10/09 04:11:22;;;;;;;5.65;3.28;;;11.20;97.70;;;;;;5106361;28;20229;-77
2023/10/09 04:13:49;;;;;;;5.97;3.88;;;11.30;97.60;;;;;;5105085;28;20188;-77
2023/10/09 04:19:05;;;;;;;5.80;4.10;;;11.40;97.50;;;;;;5104274;28;20172;-78
2023/10/09 04:21:37;;;;;;;4.30;3.42;;;11.40;97.40;;;;;;5095826;28;20261;-78
2023/10/09 04:26:44;;;;;;;3.22;2.78;;;11.40;97.50;;;;;;5083426;28;20253;-78
2023/10/09 04:29:18;;;;;;;3.50;3.05;;;11.40;97.60;;;;;;5103825;28;20188;-77
2023/10/09 04:31:51;;;;;;;5.15;3.20;;;11.30;97.60;;;;;;5104685;28;20609;-78
2023/10/09 04:34:34;;;;;;;5.78;3.22;;;11.30;97.70;;;;;;5105288;28;20310;-77
2023/10/09 04:37:00;;;;;;;4.65;2.50;;;11.30;97.70;;;;;;5101699;28;20172;-78
2023/10/09 04:44:59;;;;;;;6.70;3.28;;;11.40;97.20;;;;;;5085602;28;20218;-78
2023/10/09 04:47:35;;;;;;;3.28;2.75;;;11.30;97.30;;;;;;5084324;28;20598;-77
2023/10/09 04:50:36;;;;;;;6.80;3.30;;;11.30;97.50;;;;;;5085475;28;20203;-77
2023/10/09 04:55:57;;;;;;;2.78;2.22;;;11.20;97.70;;;;;;5104879;28;20675;-79
2023/10/09 04:58:24;;;;;;;4.43;3.30;;;11.30;97.30;;;;;;5104338;28;20184;-79
2023/10/09 05:03:56;;;;;;;3.88;3.22;;;11.30;97.70;;;;;;5105999;28;20196;-81
2023/10/09 05:06:20;;;;;;;5.80;3.25;;;11.30;97.80;;;;;;5103859;28;20208;-77
2023/10/09 05:08:54;;;;;;;5.35;3.20;;;11.30;98.00;;;;;;5105974;28;20184;-79
2023/10/09 05:11:46;;;;;;;6.15;3.33;;;11.30;98.00;;;;;;5105111;28;20676;-77
2023/10/09 05:14:12;;;;;;;5.47;3.38;;;11.30;98.00;;;;;;5105157;28;20179;-79
2023/10/09 05:16:53;;;;;;;12.33;2.90;;;11.20;97.80;;;;;;5103710;28;20180;-77
2023/10/09 05:19:29;;;;;;;4.63;2.80;;;11.30;97.80;;;;;;5097819;28;20403;-77
2023/10/09 05:21:58;;;;;;;4.50;2.85;;;11.30;97.90;;;;;;5092221;28;20172;-78
2023/10/09 05:24:26;;;;;;;4.45;3.20;;;11.40;98.00;;;;;;5094884;28;20204;-79
2023/10/09 05:26:52;;;;;;;4.28;3.08;;;11.50;98.00;;;;;;5093542;28;20205;-77
2023/10/09 05:37:26;;;;;;;9.48;3.00;;;11.70;97.60;;;;;;5100368;28;20237;-77
2023/10/09 06:06:04;;;;;;;5.25;2.60;;;12.00;98.20;;;;;;5093084;28;20204;-77
2023/10/09 06:16:59;;;;;;;11.45;2.63;;;12.20;97.10;;;;;;5093469;28;20180;-77
2023/10/09 06:19:26;;;;;;;2.90;1.90;;;12.20;97.30;;;;;;5085272;28;20208;-77
2023/10/09 06:34:51;;;;;;;4.90;3.58;;;12.40;98.20;;;;;;5102451;28;20192;-78
2023/10/09 06:42:33;;;;;;;2.55;2.30;;;12.50;97.80;;;;;;5095661;28;20180;-77
2023/10/09 06:45:08;;;;;;;5.22;2.55;;;12.60;97.80;;;;;;5096466;28;20692;-77
2023/10/09 06:47:41;;;;;;;3.50;2.30;;;12.60;97.90;;;;;;5092545;28;20214;-79
2023/10/09 06:52:57;;;;;;;8.48;5.72;;;12.70;97.70;;;;;;5086184;28;20551;-79
2023/10/09 06:55:33;;;;;;;5.07;3.60;;;12.80;97.60;;;;;;5087066;28;20653;-79
2023/10/09 06:58:01;;;;;;;8.20;5.80;;;12.90;97.50;;;;;;5096149;28;20551;-79
2023/10/09 07:03:12;;;;;;;6.72;5.10;;;12.90;97.40;;;;;;5096394;28;20424;-77
2023/10/09 07:08:31;;;;;;;5.73;5.03;;;13.00;97.00;;;;;;5099864;28;20219;-79
2023/10/09 07:11:21;;;;;;;6.10;4.50;;;13.10;96.40;;;;;;5102985;28;20455;-78
2023/10/09 07:13:54;;;;;;;7.03;4.50;;;13.10;96.30;;;;;;5097111;28;20425;-77
2023/10/09 07:16:38;;;;;;;5.70;4.00;;;13.20;96.20;;;;;;5089968;28;20455;-78
2023/10/09 07:19:25;;;;;;;7.67;3.13;;;13.30;96.30;;;;;;5097793;28;20710;-77
2023/10/09 07:21:54;;;;;;;7.53;3.10;;;13.30;96.20;;;;;;5102001;28;20687;-77
2023/10/09 07:24:37;;;;;;;4.50;2.83;;;13.30;95.90;;;;;;5094018;28;20794;-79
2023/10/09 07:27:12;;;;;;;5.40;2.47;;;13.20;95.50;;;;;;5100535;28;20467;-76
2023/10/09 07:29:47;;;;;;;3.20;1.60;;;13.30;94.40;;;;;;5089553;27;20838;-80
2023/10/09 07:32:20;;;;;;;3.43;1.87;;;13.30;92.30;;;;;;5099586;28;20423;-77
2023/10/09 07:34:58;;;;;;;4.13;1.98;;;13.30;91.80;;;;;;5090869;28;20500;-80
2023/10/09 07:37:30;;;;;;;2.43;1.50;;;13.30;91.80;;;;;;5098721;27;20184;-80
2023/10/09 07:39:57;;;;;;;1.33;1.10;;;13.30;91.50;;;;;;5099245;28;21003;-80
2023/10/09 07:42:33;;;;;;;2.00;1.40;;;13.30;91.20;;;;;;5099558;28;20692;-78
2023/10/09 07:45:11;;;;;;;1.33;1.10;;;13.40;90.40;;;;;;5099272;28;20792;-77
2023/10/09 07:48:00;;;;;;;4.07;1.77;;;13.40;90.90;;;;;;5086192;28;20837;-80
2023/10/09 07:50:49;;;;;;;4.97;2.00;;;13.40;91.10;;;;;;5095797;28;20448;-79
2023/10/09 07:53:18;;;;;;;5.50;1.73;;;13.50;90.70;;;;;;5091856;28;20951;-77
2023/10/09 07:55:54;;;;;;;1.80;1.43;;;13.50;90.40;;;;;;5090173;28;20441;-77
2023/10/09 07:58:26;;;;;;;1.87;1.50;;;13.50;90.40;;;;;;5086842;28;20425;-76
2023/10/09 08:01:15;;;;;;;2.27;1.30;;;13.50;90.20;;;;;;5085175;28;20433;-77
2023/10/09 08:03:45;;;;;;;1.83;1.13;;;13.60;90.00;;;;;;5095219;28;20772;-76
2023/10/09 08:06:38;;;;;;;2.17;1.50;;;13.60;90.20;;;;;;5093274;28;20764;-76
2023/10/09 08:12:13;;;;;;;3.30;2.03;;;13.60;90.30;;;;;;5089410;28;20431;-77
2023/10/09 08:14:43;;;;;;;2.37;1.00;;;13.70;90.30;;;;;;5088752;28;20448;-78
2023/10/09 08:17:21;;;;;;;2.00;1.10;;;13.90;90.30;;;;;;5098006;28;20642;-79
2023/10/09 08:19:53;;;;;;;3.47;1.60;;;14.00;90.30;;;;;;5083263;28;20447;-77
2023/10/09 08:24:57;;;;;;;1.90;1.13;;;14.60;89.90;;;;;;5080144;28;20428;-77
2023/10/09 08:35:47;;;;;;;2.20;1.33;;;16.00;85.60;;;;;;5074970;28;20441;-77
2023/10/09 08:38:13;;;;;;;1.60;1.10;;;16.20;84.60;;;;;;5078883;28;20464;-79
2023/10/09 08:40:46;;;;;;;5.63;1.50;;;16.40;85.00;;;;;;5079464;28;21331;-78
2023/10/09 08:43:19;;;;;;;1.70;1.17;;;16.50;84.40;;;;;;5081292;28;20432;-80
2023/10/09 08:46:00;;;;;;;2.50;1.50;;;16.70;84.00;;;;;;5081822;28;20852;-77
2023/10/09 08:48:27;;;;;;;2.13;1.10;;;16.80;83.50;;;;;;5082854;28;20504;-77
2023/10/09 08:50:54;;;;;;;1.30;0.90;;;16.80;84.10;;;;;;5089712;28;21147;-77
2023/10/09 08:53:22;;;;;;;1.77;1.03;;;16.70;83.50;;;;;;5095198;28;20415;-79
2023/10/09 08:55:47;;;;;;;2.57;1.40;;;16.60;83.20;;;;;;5079617;28;20453;-77
2023/10/09 08:58:32;;;;;;;1.23;0.90;;;16.60;84.80;;;;;;5080105;28;20424;-77
2023/10/09 09:01:00;;;;;;;2.00;1.20;;;16.80;90.50;;;;;;5076158;28;20208;-80
2023/10/09 09:03:37;;;;;;;1.23;0.93;;;16.80;88.20;;;;;;5082696;28;20580;-75
2023/10/09 09:06:03;;;;;;;1.60;1.13;;;17.00;84.00;;;;;;5077855;28;20675;-77
2023/10/09 09:08:30;;;;;;;1.43;1.10;;;17.00;80.80;;;;;;5087061;28;20824;-73
2023/10/09 09:10:58;;;;;;;2.80;1.13;;;16.90;81.10;;;;;;5086565;28;20604;-74
2023/10/09 09:13:24;;;;;;;2.03;1.10;;;16.70;82.10;;;;;;5088266;28;20420;-78
2023/10/09 09:15:53;;;;;;;1.40;1.20;;;16.60;81.10;;;;;;5098546;28;20520;-79
2023/10/09 09:18:19;;;;;;;1.60;1.30;;;16.50;82.20;;;;;;5097861;28;21025;-79
2023/10/09 09:20:49;;;;;;;1.83;1.30;;;16.40;82.20;;;;;;5101522;28;20544;-78
2023/10/09 09:23:16;;;;;;;2.03;1.20;;;16.30;82.40;;;;;;5094554;28;20748;-74
2023/10/09 09:25:58;;;;;;;1.73;1.30;;;16.30;83.70;;;;;;5091717;28;20456;-74
2023/10/09 09:28:26;;;;;;;2.53;1.10;;;16.30;83.10;;;;;;5093210;28;20829;-74
2023/10/09 09:30:53;;;;;;;4.60;1.20;;;16.20;82.80;;;;;;5093560;28;20458;-78
2023/10/09 09:33:39;;;;;;;1.00;0.80;;;16.30;84.30;;;;;;5098336;28;20496;-74
2023/10/09 09:36:06;;;;;;;3.30;1.63;;;16.20;83.30;;;;;;5089194;28;20690;-79
2023/10/09 09:38:49;;;;;;;3.67;1.33;;;16.20;83.10;;;;;;5097857;28;20491;-76
2023/10/09 09:41:24;;;;;;;4.13;1.50;;;16.20;83.70;;;;;;5115588;27;20516;-78
2023/10/09 09:44:01;;;;;;;1.57;1.30;;;16.20;83.00;;;;;;5091169;28;20750;-78
2023/10/09 09:46:33;;;;;;;1.67;1.50;;;16.20;82.80;;;;;;5096229;28;20595;-77
2023/10/09 09:49:05;;;;;;;3.23;1.47;;;16.20;83.20;;;;;;5099937;28;20507;-78
2023/10/09 09:51:32;;;;;;;2.47;1.40;;;16.30;83.10;;;;;;5091206;28;20431;-73
2023/10/09 09:53:58;;;;;;;2.70;1.10;;;16.30;84.10;;;;;;5091090;28;20432;-78
2023/10/09 09:56:28;;;;;;;1.67;1.37;;;16.20;83.30;;;;;;5093609;28;20509;-80
2023/10/09 09:59:01;;;;;;;2.63;1.23;;;16.10;82.70;;;;;;5090514;28;20684;-78
2023/10/09 10:01:35;;;;;;;6.37;1.60;;;16.10;82.80;;;;;;5091424;28;20525;-79
2023/10/09 10:04:13;;;;;;;2.03;1.80;;;16.10;84.00;;;;;;5084083;28;20414;-78
2023/10/09 10:06:43;;;;;;;1.60;1.10;;;16.10;83.40;;;;;;5094865;28;20467;-74
2023/10/09 10:09:09;;;;;;;2.40;1.07;;;16.10;83.60;;;;;;5081941;28;20610;-74
2023/10/09 10:11:45;;;;;;;4.97;1.63;;;16.10;83.40;;;;;;5084267;28;20432;-78
2023/10/09 10:14:31;;;;;;;2.30;1.23;;;16.10;83.70;;;;;;5092418;28;20176;-79
2023/10/09 10:17:27;;;;;;;2.57;1.20;;;16.10;83.80;;;;;;5076745;28;20647;-74
2023/10/09 10:20:14;;;;;;;1.90;1.43;;;16.10;83.70;;;;;;5094871;28;20459;-74
2023/10/09 10:22:47;;;;;;;1.67;1.20;;;16.20;83.30;;;;;;5091990;28;20443;-74
2023/10/09 10:25:32;;;;;;;1.00;0.90;;;16.20;83.20;;;;;;5082877;28;20449;-74
2023/10/09 10:31:09;;;;;;;1.60;1.30;;;16.30;84.20;;;;;;5089668;28;20786;-78
2023/10/09 10:33:56;;;;;;;2.40;1.07;;;16.40;83.20;;;;;;5082240;28;20575;-79
2023/10/09 10:36:26;;;;;;;5.50;1.37;;;16.50;83.20;;;;;;5081913;28;20760;-79
2023/10/09 10:39:04;;;;;;;2.43;1.40;;;16.60;82.60;;;;;;5080987;28;20463;-79
2023/10/09 10:41:35;;;;;;;2.60;1.07;;;16.60;82.60;;;;;;5079867;28;20569;-74
2023/10/09 10:44:33;;;;;;;0.73;0.70;;;16.60;82.20;;;;;;5087176;28;21003;-74
2023/10/09 10:46:53;;;;;;;6.80;5.40;;;16.70;83.10;;;;;;5087195;28;20465;-79
2023/10/09 10:49:23;;;;;;;2.93;1.90;;;16.70;83.40;;;;;;5093122;28;20516;-78
2023/10/09 10:52:01;;;;;;;3.00;1.87;;;16.80;83.70;;;;;;5083955;28;20441;-74
2023/10/09 10:54:45;;;;;;;2.57;1.50;;;17.00;82.20;;;;;;5084672;28;20539;-79
2023/10/09 10:57:30;;;;;;;2.33;1.13;;;17.00;81.70;;;;;;5082273;28;20445;-81
2023/10/09 11:00:12;;;;;;;2.47;1.50;;;17.10;81.30;;;;;;5085641;28;20535;-81
2023/10/09 11:02:43;;;;;;;2.00;1.50;;;17.20;80.40;;;;;;5088496;28;20440;-81
2023/10/09 11:05:23;;;;;;;1.80;1.20;;;17.20;80.60;;;;;;5083728;28;20474;-76
2023/10/09 11:07:52;;;;;;;2.30;0.93;;;17.30;80.10;;;;;;5088008;28;20512;-74
2023/10/09 11:10:31;;;;;;;1.83;1.20;;;17.40;80.40;;;;;;5087402;28;20501;-77
2023/10/09 11:15:47;;;;;;;1.17;0.80;;;17.50;78.90;;;;;;5086265;28;21080;-75
2023/10/09 11:18:24;;;;;;;2.00;1.20;;;17.50;79.80;;;;;;5088466;28;20417;-75
2023/10/09 11:28:57;;;;;;;3.17;1.10;;;17.60;79.20;;;;;;5086436;28;20463;-78
2023/10/09 11:31:23;;;;;;;2.60;1.30;;;17.60;78.80;;;;;;5092134;27;21770;-75
2023/10/09 11:33:53;;;;;;;3.00;1.90;;;17.60;79.90;;;;;;5091988;27;20788;-77
2023/10/09 11:36:32;;;;;;;6.73;2.90;;;17.60;79.70;;;;;;5089554;28;20449;-75
2023/10/09 11:39:22;;;;;;;6.40;2.20;;;17.70;79.20;;;;;;5091210;27;20550;-75
2023/10/09 11:41:49;;;;;;;2.83;1.57;;;17.70;79.30;;;;;;5083244;28;20419;-78
2023/10/09 11:44:24;;;;;;;4.50;1.50;;;17.70;80.50;;;;;;5086456;28;20977;-75
2023/10/09 11:55:02;;;;;;;1.87;1.30;;;17.90;78.80;;;;;;5088211;28;20705;-80
2023/10/09 11:57:33;;;;;;;2.47;1.00;;;17.90;79.00;;;;;;5092017;28;20450;-77
2023/10/09 12:00:00;;;;;;;2.67;1.20;;;17.90;79.30;;;;;;5086824;28;20548;-75
2023/10/09 12:02:26;;;;;;;1.77;1.60;;;18.10;79.50;;;;;;5091266;28;20468;-79
2023/10/09 12:04:51;;;;;;;4.13;2.03;;;18.10;79.50;;;;;;5088984;28;20522;-76
2023/10/09 12:07:20;;;;;;;2.33;1.50;;;18.10;79.80;;;;;;5091808;28;20457;-80
2023/10/09 12:09:47;;;;;;;2.47;1.10;;;18.10;79.60;;;;;;5091091;28;20254;-77
2023/10/09 12:12:13;;;;;;;2.33;1.20;;;18.10;79.50;;;;;;5090399;28;20421;-76
2023/10/09 12:14:39;;;;;;;1.37;1.10;;;18.20;79.20;;;;;;5092070;28;20449;-78
2023/10/09 12:17:06;;;;;;;1.60;1.33;;;18.20;79.90;;;;;;5089658;28;20583;-80
2023/10/09 12:19:39;;;;;;;2.27;1.53;;;18.30;80.50;;;;;;5087008;28;20500;-79
2023/10/09 12:22:10;;;;;;;9.10;1.47;;;18.30;80.50;;;;;;5090258;28;20488;-76
2023/10/09 12:24:37;;;;;;;3.50;1.83;;;18.40;80.80;;;;;;5088238;28;20649;-76
2023/10/09 12:27:09;;;;;;;4.90;2.37;;;18.40;80.60;;;;;;5090015;28;21034;-78
2023/10/09 12:29:35;;;;;;;3.50;1.37;;;18.50;80.20;;;;;;5087786;28;20465;-77
2023/10/09 12:32:02;;;;;;;2.30;1.77;;;18.50;80.30;;;;;;5092918;28;20433;-77
2023/10/09 12:34:28;;;;;;;2.33;1.77;;;18.60;80.00;;;;;;5091540;28;20198;-76
2023/10/09 12:36:54;;;;;;;2.70;1.93;;;18.60;80.70;;;;;;5093464;28;20481;-81
2023/10/09 12:39:21;;;;;;;2.60;2.00;;;18.60;80.70;;;;;;5094555;28;20463;-80
2023/10/09 12:41:48;;;;;;;2.63;1.77;;;18.60;80.80;;;;;;5088284;28;20457;-77
2023/10/09 12:44:14;;;;;;;6.53;2.13;;;18.70;81.90;;;;;;5086921;28;21008;-78
2023/10/09 12:46:51;;;;;;;3.13;1.30;;;18.70;82.30;;;;;;5094130;28;20512;-81
2023/10/09 12:49:19;;;;;;;2.10;1.20;;;18.70;81.40;;;;;;5093147;28;20849;-77
2023/10/09 12:51:45;;;;;;;1.70;1.17;;;18.70;81.50;;;;;;5093181;28;20475;-77
2023/10/09 12:54:13;;;;;;;1.87;1.00;;;18.70;82.50;;;;;;5104197;28;20826;-78
2023/10/09 12:56:38;;;;;;;2.97;1.77;;;18.60;85.70;;;;;;5085644;28;20511;-81
2023/10/09 12:59:06;;;;;;;3.10;1.47;;;18.70;88.10;;;;;;5086596;28;20530;-81
2023/10/09 13:01:32;;;;;;;2.07;1.63;;;18.70;86.60;;;;;;5084689;28;20582;-77
2023/10/09 13:04:01;;;;;;;2.20;1.50;;;18.80;84.80;;;;;;5089443;28;20484;-78
2023/10/09 13:06:27;;;;;;;2.60;1.50;;;18.80;88.20;;;;;;5087671;28;20201;-82
2023/10/09 13:08:56;;;;;;;4.20;2.60;;;18.80;87.50;;;;;;5089181;28;20837;-77
2023/10/09 13:11:25;;;;;;;8.07;4.83;;;18.80;87.80;;;;;;5087184;28;21007;-83
2023/10/09 13:13:51;;;;;;;3.30;3.00;;;18.80;89.20;;;;;;5094479;28;20428;-77
2023/10/09 13:16:24;;;;;;;4.10;2.20;;;18.90;90.20;;;;;;5095069;28;20873;-77
2023/10/09 13:18:56;;;;;;;1.83;1.57;;;18.90;89.90;;;;;;5084302;28;20174;-77
2023/10/09 13:21:24;;;;;;;5.00;1.80;;;19.00;85.60;;;;;;5091479;28;20442;-82
2023/10/09 13:23:50;;;;;;;2.67;1.83;;;19.00;85.80;;;;;;5094375;28;20501;-78
2023/10/09 13:26:34;;;;;;;4.03;2.83;;;19.10;85.00;;;;;;5090017;28;20419;-77
2023/10/09 13:29:02;;;;;;;2.07;1.40;;;19.10;85.00;;;;;;5094574;28;20446;-77
2023/10/09 13:31:34;;;;;;;3.83;2.27;;;19.10;85.00;;;;;;5093151;28;20682;-83
2023/10/09 13:34:01;;;;;;;4.70;2.10;;;19.20;84.80;;;;;;5100275;28;20644;-84
2023/10/09 13:36:26;;;;;;;2.70;1.33;;;19.30;84.40;;;;;;5085792;28;20657;-77
2023/10/09 13:38:56;;;;;;;1.40;1.30;;;19.30;83.70;;;;;;5088095;28;20615;-84
2023/10/09 13:41:28;;;;;;;3.23;1.87;;;19.30;83.80;;;;;;5091624;28;20450;-79
2023/10/09 13:43:54;;;;;;;2.50;1.80;;;19.40;84.00;;;;;;5087747;28;20432;-83
2023/10/09 13:46:20;;;;;;;1.73;1.40;;;19.40;84.00;;;;;;5098766;28;20504;-81
2023/10/09 13:48:49;;;;;;;3.60;1.70;;;19.40;83.70;;;;;;5097418;28;20186;-80
2023/10/09 13:51:18;;;;;;;2.17;1.27;;;19.40;83.60;;;;;;5097428;28;20560;-77
2023/10/09 13:53:48;;;;;;;3.63;1.70;;;19.50;83.50;;;;;;5086311;28;20451;-80
2023/10/09 13:56:19;;;;;;;3.50;1.53;;;19.40;83.70;;;;;;5094370;28;20686;-76
2023/10/09 13:58:50;;;;;;;1.80;1.60;;;19.50;84.00;;;;;;5084685;28;20412;-80
2023/10/09 14:01:38;;;;;;;1.57;1.40;;;19.50;83.80;;;;;;5077809;28;20748;-77
2023/10/09 14:04:06;;;;;;;2.30;1.47;;;19.50;83.80;;;;;;5088030;28;20533;-76
2023/10/09 14:06:32;;;;;;;2.80;1.70;;;19.50;84.30;;;;;;5089046;28;20424;-81
2023/10/09 14:09:05;;;;;;;4.50;1.73;;;19.50;84.00;;;;;;5090330;27;20795;-78
2023/10/09 14:11:37;;;;;;;4.77;2.00;;;19.50;84.30;;;;;;5086653;28;20427;-76
2023/10/09 14:14:03;;;;;;;5.13;2.00;;;19.50;84.80;;;;;;5101147;27;20431;-81
2023/10/09 14:16:32;;;;;;;3.90;1.57;;;19.50;84.70;;;;;;5084986;28;21284;-81
2023/10/09 14:19:00;;;;;;;3.03;1.57;;;19.60;84.60;;;;;;5081219;28;20428;-81
2023/10/09 14:21:30;;;;;;;4.77;1.70;;;19.60;84.80;;;;;;5077771;28;20950;-77
2023/10/09 14:23:57;;;;;;;2.43;2.03;;;19.60;85.20;;;;;;5077192;28;20711;-81
2023/10/09 14:26:29;;;;;;;3.27;2.00;;;19.60;86.50;;;;;;5088935;28;20459;-77
2023/10/09 14:28:59;;;;;;;3.47;1.80;;;19.60;87.40;;;;;;5088759;28;20714;-82
2023/10/09 14:31:26;;;;;;;5.37;1.80;;;19.50;87.50;;;;;;5087514;28;20859;-79
2023/10/09 14:33:56;;;;;;;4.33;1.87;;;19.50;87.60;;;;;;5097537;28;20505;-81
2023/10/09 14:36:23;;;;;;;6.07;1.73;;;19.40;87.30;;;;;;5100305;28;20431;-82
2023/10/09 14:38:52;;;;;;;6.60;5.73;;;19.40;88.00;;;;;;5098970;28;20760;-78
2023/10/09 14:41:25;;;;;;;3.93;3.00;;;19.40;88.10;;;;;;5088391;28;20454;-78
2023/10/09 14:43:52;;;;;;;3.73;3.30;;;19.40;89.10;;;;;;5082860;28;20416;-81
2023/10/09 14:46:24;;;;;;;14.13;8.13;;;19.40;89.30;;;;;;5080404;28;20448;-77
2023/10/09 14:48:52;;;;;;;16.13;8.90;;;19.30;89.90;;;;;;5096047;28;20795;-86
2023/10/09 14:51:26;;;;;;;11.83;4.27;;;19.30;90.60;;;;;;5098199;28;20443;-76
2023/10/09 14:53:58;;;;;;;10.90;4.87;;;19.30;90.80;;;;;;5102021;28;20391;-81
2023/10/09 14:56:28;;;;;;;5.17;2.90;;;19.30;90.90;;;;;;5103556;28;21225;-82
2023/10/09 14:58:59;;;;;;;4.40;1.90;;;19.30;91.10;;;;;;5087758;28;20543;-83
2023/10/09 15:01:28;;;;;;;9.53;2.90;;;19.30;91.40;;;;;;5080802;28;21002;-85
2023/10/09 15:03:57;;;;;;;3.43;1.60;;;19.30;91.60;;;;;;5088292;28;20484;-82
2023/10/09 15:06:31;;;;;;;5.93;2.67;;;19.30;91.40;;;;;;5103083;28;20432;-77
2023/10/09 15:08:58;;;;;;;5.90;2.30;;;19.30;91.80;;;;;;5100237;28;20509;-85
2023/10/09 15:11:28;;;;;;;4.00;1.83;;;19.20;91.70;;;;;;5094471;28;20454;-80
2023/10/09 15:13:56;;;;;;;6.60;1.50;;;19.20;91.70;;;;;;5095249;28;20787;-77
2023/10/09 15:16:23;;;;;;;4.00;1.70;;;19.20;91.70;;;;;;5090872;28;20455;-77
2023/10/09 15:18:52;;;;;;;2.20;1.07;;;19.20;91.60;;;;;;5096539;28;20815;-83
2023/10/09 15:21:22;;;;;;;6.20;1.90;;;19.20;91.90;;;;;;5084026;28;20928;-78
2023/10/09 15:23:54;;;;;;;4.30;1.97;;;19.20;92.00;;;;;;5085850;28;20412;-84
2023/10/09 15:26:20;;;;;;;5.13;2.00;;;19.20;92.00;;;;;;5085233;28;20443;-84
2023/10/09 15:28:46;;;;;;;4.70;2.37;;;19.20;91.80;;;;;;5086352;28;20471;-82
2023/10/09 15:31:14;;;;;;;6.67;3.30;;;19.10;92.00;;;;;;5101874;28;20450;-83
2023/10/09 15:33:41;;;;;;;6.53;3.90;;;19.10;91.80;;;;;;5103914;28;20187;-79
2023/10/09 15:36:17;;;;;;;8.63;2.70;;;19.10;91.80;;;;;;5085541;28;20455;-81
2023/10/09 15:38:42;;;;;;;3.83;2.70;;;19.10;92.10;;;;;;5094434;28;20465;-79
2023/10/09 15:41:08;;;;;;;7.73;3.53;;;19.10;91.90;;;;;;5104450;28;20457;-80
2023/10/09 15:43:37;;;;;;;3.03;2.40;;;19.10;91.90;;;;;;5091642;28;20426;-83
2023/10/09 15:46:03;;;;;;;4.53;2.80;;;19.00;92.20;;;;;;5083473;28;20552;-77